createdAt,value
2018-05-16T00:01:39.401Z,14.67
2018-05-16T00:04:05.781Z,12.60
2018-05-16T00:06:31.780Z,13.37
2018-05-16T00:08:57.899Z,12.07
2018-05-16T00:11:24.513Z,11.27
2018-05-16T00:13:50.540Z,12.03
2018-05-16T00:16:16.589Z,12.87
2018-05-16T00:18:42.604Z,15.47
2018-05-16T00:21:08.637Z,12.53
2018-05-16T00:23:34.669Z,13.53
2018-05-16T00:26:00.821Z,17.70
2018-05-16T00:28:26.869Z,13.23
2018-05-16T00:30:52.895Z,13.57
2018-05-16T00:33:19.337Z,11.90
2018-05-16T00:35:45.416Z,12.80
2018-05-16T00:38:11.440Z,12.90
2018-05-16T00:40:37.469Z,12.77
2018-05-16T00:43:03.501Z,12.43
2018-05-16T00:45:30.285Z,16.90
2018-05-16T00:47:56.481Z,13.40
2018-05-16T00:50:22.525Z,13.60
2018-05-16T00:52:48.545Z,15.03
2018-05-16T00:55:14.557Z,14.57
2018-05-16T00:57:40.649Z,16.23
2018-05-16T01:00:06.789Z,16.97
2018-05-16T01:02:33.185Z,15.50
2018-05-16T01:04:59.205Z,15.67
2018-05-16T01:07:25.240Z,15.10
2018-05-16T01:09:51.595Z,15.80
2018-05-16T01:12:17.645Z,16.73
2018-05-16T01:14:43.669Z,16.57
2018-05-16T01:17:10.647Z,21.07
2018-05-16T01:19:37.169Z,17.53
2018-05-16T01:22:03.221Z,17.63
2018-05-16T01:24:29.285Z,20.90
2018-05-16T01:26:55.325Z,19.63
2018-05-16T01:29:21.365Z,20.97
2018-05-16T01:31:47.369Z,21.80
2018-05-16T01:34:13.385Z,18.90
2018-05-16T01:36:39.565Z,19.03
2018-05-16T01:39:05.591Z,20.30
2018-05-16T01:41:31.606Z,20.57
2018-05-16T01:43:57.641Z,20.23
2018-05-16T01:46:24.429Z,22.20
2018-05-16T01:49:03.391Z,23.20
2018-05-16T01:51:29.410Z,21.67
2018-05-16T01:53:55.445Z,22.63
2018-05-16T01:56:21.471Z,20.80
2018-05-16T01:58:47.517Z,22.60
2018-05-16T02:01:13.594Z,21.43
2018-05-16T02:03:39.625Z,23.00
2018-05-16T02:06:05.861Z,21.63
2018-05-16T02:08:31.872Z,23.37
2018-05-16T02:10:57.901Z,23.10
2018-05-16T02:13:23.997Z,24.47
2018-05-16T02:15:50.030Z,24.57
2018-05-16T02:18:17.129Z,24.70
2018-05-16T02:20:43.141Z,23.70
2018-05-16T02:23:09.148Z,24.13
2018-05-16T02:25:35.225Z,24.13
2018-05-16T02:28:01.376Z,23.03
2018-05-16T02:30:28.605Z,25.17
2018-05-16T02:32:55.190Z,26.60
2018-05-16T02:35:21.209Z,24.20
2018-05-16T02:37:47.279Z,23.77
2018-05-16T02:40:13.309Z,26.37
2018-05-16T02:42:40.534Z,24.50
2018-05-16T02:45:06.613Z,25.27
2018-05-16T02:47:32.744Z,25.90
2018-05-16T02:49:58.798Z,28.60
2018-05-16T02:52:24.933Z,25.57
2018-05-16T02:54:50.949Z,25.70
2018-05-16T02:57:16.981Z,26.10
2018-05-16T02:59:43.010Z,26.53
2018-05-16T03:02:09.113Z,27.43
2018-05-16T03:04:35.145Z,28.70
2018-05-16T03:07:01.153Z,27.00
2018-05-16T03:09:27.169Z,25.93
2018-05-16T03:11:53.234Z,26.77
2018-05-16T03:14:19.299Z,25.87
2018-05-16T03:16:45.313Z,27.93
2018-05-16T03:19:11.327Z,28.33
2018-05-16T03:21:37.737Z,27.27
2018-05-16T03:24:03.761Z,28.17
2018-05-16T03:26:29.803Z,28.80
2018-05-16T03:28:56.016Z,27.90
2018-05-16T03:31:22.038Z,28.03
2018-05-16T03:33:48.084Z,27.63
2018-05-16T03:36:14.097Z,29.17
2018-05-16T03:38:40.097Z,28.60
2018-05-16T03:41:06.605Z,29.17
2018-05-16T03:43:32.649Z,29.07
2018-05-16T03:45:58.698Z,30.03
2018-05-16T03:48:24.742Z,28.53
2018-05-16T03:50:50.781Z,29.17
2018-05-16T03:53:16.831Z,29.93
2018-05-16T03:55:42.861Z,29.73
2018-05-16T03:58:22.137Z,29.27
2018-05-16T04:01:01.053Z,29.47
2018-05-16T04:03:40.130Z,29.33
2018-05-16T04:06:06.145Z,30.70
2018-05-16T04:08:32.263Z,31.03
2018-05-16T04:10:58.282Z,30.57
2018-05-16T04:13:24.324Z,29.17
2018-05-16T04:15:50.393Z,29.50
2018-05-16T04:18:16.496Z,30.97
2018-05-16T04:20:42.496Z,30.23
2018-05-16T04:23:08.500Z,31.47
2018-05-16T04:25:34.705Z,32.53
2018-05-16T04:28:01.557Z,34.43
2018-05-16T04:30:28.430Z,31.10
2018-05-16T04:32:54.754Z,30.87
2018-05-16T04:35:21.053Z,30.43
2018-05-16T04:37:47.169Z,30.10
2018-05-16T04:40:13.221Z,30.57
2018-05-16T04:42:39.249Z,30.53
2018-05-16T04:45:05.278Z,29.63
2018-05-16T04:47:31.280Z,29.37
2018-05-16T04:49:57.349Z,31.87
2018-05-16T04:52:23.405Z,30.47
2018-05-16T04:54:49.752Z,29.13
2018-05-16T04:57:15.880Z,30.73
2018-05-16T04:59:41.911Z,31.43
2018-05-16T05:02:07.986Z,33.63
2018-05-16T05:04:34.000Z,29.40
2018-05-16T05:07:00.065Z,29.83
2018-05-16T05:09:26.196Z,31.53
2018-05-16T05:11:52.212Z,31.30
2018-05-16T05:14:18.278Z,31.60
2018-05-16T05:16:44.307Z,31.77
2018-05-16T05:19:10.446Z,30.47
2018-05-16T05:21:36.617Z,30.03
2018-05-16T05:24:02.653Z,30.20
2018-05-16T05:26:28.669Z,28.53
2018-05-16T05:28:54.688Z,29.50
2018-05-16T05:31:20.934Z,30.63
2018-05-16T05:33:47.097Z,29.47
2018-05-16T05:36:13.501Z,31.60
2018-05-16T05:38:39.521Z,32.70
2018-05-16T05:41:05.545Z,30.37
2018-05-16T05:43:31.934Z,28.80
2018-05-16T05:45:57.993Z,29.90
2018-05-16T05:48:24.013Z,29.60
2018-05-16T05:50:50.043Z,29.10
2018-05-16T05:53:16.049Z,29.43
2018-05-16T05:55:42.214Z,28.60
2018-05-16T05:58:08.277Z,29.33
2018-05-16T06:00:34.305Z,31.03
2018-05-16T06:03:00.337Z,31.17
2018-05-16T06:05:26.428Z,32.13
2018-05-16T06:07:52.393Z,30.20
2018-05-16T06:10:18.493Z,29.67
2018-05-16T06:12:44.554Z,29.43
2018-05-16T06:15:10.569Z,30.30
2018-05-16T06:17:36.613Z,29.27
2018-05-16T06:20:02.778Z,27.60
2018-05-16T06:22:28.837Z,29.33
2018-05-16T06:24:54.882Z,29.47
2018-05-16T06:27:20.943Z,29.30
2018-05-16T06:29:46.941Z,27.53
2018-05-16T06:32:13.092Z,27.13
2018-05-16T06:34:39.174Z,27.10
2018-05-16T06:37:05.929Z,30.67
2018-05-16T06:39:32.099Z,25.87
2018-05-16T06:41:58.310Z,25.23
2018-05-16T06:44:24.402Z,26.20
2018-05-16T06:46:50.384Z,27.03
2018-05-16T06:49:16.435Z,30.83
2018-05-16T06:51:42.466Z,25.20
2018-05-16T06:54:08.493Z,24.53
2018-05-16T06:56:34.529Z,26.53
2018-05-16T06:59:00.564Z,26.17
2018-05-16T07:01:26.606Z,26.03
2018-05-16T07:03:52.645Z,26.03
2018-05-16T07:06:18.677Z,24.80
2018-05-16T07:08:44.822Z,25.77
2018-05-16T07:11:10.893Z,25.00
2018-05-16T07:13:37.012Z,26.53
2018-05-16T07:16:03.745Z,25.40
2018-05-16T07:18:29.752Z,26.40
2018-05-16T07:20:56.834Z,25.47
2018-05-16T07:23:22.852Z,25.30
2018-05-16T07:25:49.021Z,28.57
2018-05-16T07:28:15.094Z,25.33
2018-05-16T07:30:41.121Z,24.77
2018-05-16T07:33:07.181Z,24.73
2018-05-16T07:35:33.207Z,24.90
2018-05-16T07:38:00.013Z,25.07
2018-05-16T07:40:26.074Z,25.83
2018-05-16T07:42:52.238Z,25.47
2018-05-16T07:45:18.273Z,27.67
2018-05-16T07:47:44.313Z,25.07
2018-05-16T07:50:10.405Z,24.73
2018-05-16T07:52:36.461Z,26.27
2018-05-16T07:55:02.480Z,23.83
2018-05-16T07:57:28.540Z,25.23
2018-05-16T07:59:54.568Z,26.33
2018-05-16T08:02:20.609Z,29.00
2018-05-16T08:04:46.650Z,24.53
2018-05-16T08:07:12.837Z,24.37
2018-05-16T08:09:38.862Z,26.33
2018-05-16T08:12:04.892Z,24.60
2018-05-16T08:14:30.945Z,26.80
2018-05-16T08:16:57.505Z,23.23
2018-05-16T08:19:23.537Z,28.30
2018-05-16T08:21:50.688Z,23.80
2018-05-16T08:24:16.738Z,23.73
2018-05-16T08:26:42.817Z,23.83
2018-05-16T08:29:08.872Z,23.73
2018-05-16T08:31:35.657Z,22.80
2018-05-16T08:34:01.678Z,21.80
2018-05-16T08:36:27.708Z,25.20
2018-05-16T08:38:54.249Z,24.40
2018-05-16T08:41:20.413Z,23.27
2018-05-16T08:43:47.184Z,24.53
2018-05-16T08:46:13.236Z,22.60
2018-05-16T08:48:39.253Z,22.73
2018-05-16T08:51:05.325Z,23.67
2018-05-16T08:53:32.169Z,23.43
2018-05-16T08:55:58.195Z,23.27
2018-05-16T08:58:24.756Z,25.17
2018-05-16T09:00:51.273Z,23.00
2018-05-16T09:03:17.312Z,21.57
2018-05-16T09:05:43.632Z,21.70
2018-05-16T09:08:09.569Z,21.73
2018-05-16T09:10:35.722Z,19.53
2018-05-16T09:13:01.725Z,21.77
2018-05-16T09:15:27.786Z,25.67
2018-05-16T09:17:53.953Z,21.33
2018-05-16T09:20:19.969Z,20.13
2018-05-16T09:22:46.101Z,20.67
2018-05-16T09:25:12.242Z,21.73
2018-05-16T09:27:38.221Z,22.07
2018-05-16T09:30:04.287Z,19.27
2018-05-16T09:32:30.349Z,19.30
2018-05-16T09:34:57.150Z,18.43
2018-05-16T09:37:23.190Z,20.37
2018-05-16T09:39:49.294Z,18.90
2018-05-16T09:42:16.090Z,19.20
2018-05-16T09:44:42.393Z,19.50
2018-05-16T09:47:08.541Z,19.47
2018-05-16T09:49:34.548Z,19.03
2018-05-16T09:52:00.636Z,19.07
2018-05-16T09:54:27.446Z,18.90
2018-05-16T09:56:53.458Z,16.53
2018-05-16T09:59:19.478Z,17.03
2018-05-16T10:01:45.885Z,16.47
2018-05-16T10:04:11.961Z,16.07
2018-05-16T10:06:38.065Z,18.10
2018-05-16T10:09:04.250Z,16.00
2018-05-16T10:11:30.272Z,17.23
2018-05-16T10:13:56.285Z,14.83
2018-05-16T10:16:23.082Z,12.10
2018-05-16T10:18:49.286Z,9.27
2018-05-16T10:21:15.424Z,13.43
2018-05-16T10:23:41.543Z,9.53
2018-05-16T10:26:07.505Z,10.20
2018-05-16T10:28:33.610Z,8.50
2018-05-16T10:30:59.701Z,8.17
2018-05-16T10:33:25.817Z,9.50
2018-05-16T10:35:51.833Z,11.17
2018-05-16T10:38:17.845Z,7.27
2018-05-16T10:40:43.897Z,9.97
2018-05-16T10:43:09.961Z,12.67
2018-05-16T10:45:36.366Z,9.50
2018-05-16T10:48:02.562Z,6.90
2018-05-16T10:50:28.584Z,6.97
2018-05-16T10:52:55.042Z,6.70
2018-05-16T10:55:21.127Z,7.80
2018-05-16T10:57:47.168Z,7.43
2018-05-16T11:00:13.929Z,9.83
2018-05-16T11:02:39.942Z,8.73
2018-05-16T11:05:06.019Z,8.30
2018-05-16T11:07:32.113Z,9.90
2018-05-16T11:09:58.241Z,8.87
2018-05-16T11:12:24.258Z,9.40
2018-05-16T11:14:50.269Z,9.07
2018-05-16T11:17:16.402Z,8.97
2018-05-16T11:19:42.433Z,8.87
2018-05-16T11:22:08.485Z,9.43
2018-05-16T11:24:34.519Z,10.83
2018-05-16T11:27:00.577Z,9.03
2018-05-16T11:29:26.645Z,8.07
2018-05-16T11:31:52.648Z,9.27
2018-05-16T11:34:18.733Z,8.70
2018-05-16T11:36:44.825Z,8.10
2018-05-16T11:39:10.841Z,8.87
2018-05-16T11:41:36.857Z,8.20
2018-05-16T11:44:03.144Z,9.47
2018-05-16T11:46:29.208Z,8.13
2018-05-16T11:48:55.329Z,8.80
2018-05-16T11:51:21.257Z,11.00
2018-05-16T11:53:47.345Z,11.87
2018-05-16T11:56:13.397Z,12.20
2018-05-16T11:58:40.197Z,12.80
2018-05-16T12:01:06.358Z,12.07
2018-05-16T12:03:32.425Z,11.37
2018-05-16T12:05:58.437Z,11.10
2018-05-16T12:08:24.878Z,10.80
2018-05-16T12:10:51.358Z,13.07
2018-05-16T12:13:17.385Z,12.30
2018-05-16T12:15:43.484Z,14.70
2018-05-16T12:18:09.620Z,15.10
2018-05-16T12:20:35.702Z,15.50
2018-05-16T12:23:01.750Z,14.97
2018-05-16T12:25:27.905Z,15.10
2018-05-16T12:27:53.925Z,14.53
2018-05-16T12:30:21.010Z,14.30
2018-05-16T12:32:47.213Z,14.90
2018-05-16T12:35:13.228Z,12.07
2018-05-16T12:37:41.241Z,12.47
2018-05-16T12:40:07.581Z,12.63
2018-05-16T12:42:33.759Z,11.47
2018-05-16T12:44:59.793Z,11.20
2018-05-16T12:47:26.169Z,10.60
2018-05-16T12:49:52.397Z,10.83
2018-05-16T12:52:18.421Z,11.57
2018-05-16T12:54:44.552Z,10.73
2018-05-16T12:57:10.585Z,11.27
2018-05-16T12:59:36.597Z,13.27
2018-05-16T13:02:02.613Z,14.13
2018-05-16T13:04:28.649Z,15.27
2018-05-16T13:06:54.793Z,15.97
2018-05-16T13:09:20.809Z,17.67
2018-05-16T13:11:46.820Z,20.20
2018-05-16T13:14:12.881Z,19.93
2018-05-16T13:16:38.901Z,21.03
2018-05-16T13:19:04.990Z,21.83
2018-05-16T13:21:31.131Z,21.20
2018-05-16T13:23:57.117Z,22.90
2018-05-16T13:26:23.177Z,21.60
2018-05-16T13:28:49.205Z,24.03
2018-05-16T13:31:15.278Z,24.33
2018-05-16T13:33:41.350Z,23.57
2018-05-16T13:36:07.423Z,24.10
2018-05-16T13:38:33.414Z,24.53
2018-05-16T13:40:59.558Z,24.33
2018-05-16T13:43:25.661Z,22.93
2018-05-16T13:45:51.730Z,24.40
2018-05-16T13:48:17.748Z,24.60
2018-05-16T13:50:43.785Z,24.07
2018-05-16T13:53:09.829Z,25.10
2018-05-16T13:55:35.881Z,24.63
2018-05-16T13:58:01.913Z,25.00
2018-05-16T14:00:27.981Z,24.50
2018-05-16T14:02:54.019Z,24.53
2018-05-16T14:05:20.049Z,25.83
2018-05-16T14:07:46.804Z,25.03
2018-05-16T14:10:13.037Z,26.33
2018-05-16T14:12:39.089Z,26.13
2018-05-16T14:15:05.873Z,23.63
2018-05-16T14:17:32.024Z,26.70
2018-05-16T14:19:58.185Z,21.17
2018-05-16T14:22:24.272Z,19.30
2018-05-16T14:24:50.286Z,18.50
2018-05-16T14:27:16.332Z,13.13
2018-05-16T14:29:42.398Z,13.27
2018-05-16T14:32:08.652Z,18.50
2018-05-16T14:34:34.692Z,13.03
2018-05-16T14:37:00.728Z,15.77
2018-05-16T14:39:26.785Z,14.53
2018-05-16T14:41:52.814Z,19.17
2018-05-16T14:44:18.888Z,17.10
2018-05-16T14:46:44.949Z,18.40
2018-05-16T14:49:10.993Z,22.80
2018-05-16T14:51:37.053Z,22.07
2018-05-16T14:54:03.061Z,22.43
2018-05-16T14:56:29.094Z,22.70
2018-05-16T14:58:55.153Z,19.73
2018-05-16T15:01:21.201Z,21.47
2018-05-16T15:03:47.608Z,22.60
2018-05-16T15:06:13.625Z,23.67
2018-05-16T15:08:39.641Z,23.57
2018-05-16T15:11:05.721Z,20.97
2018-05-16T15:13:31.776Z,22.30
2018-05-16T15:15:58.562Z,21.50
2018-05-16T15:18:24.614Z,19.27
2018-05-16T15:20:50.641Z,20.93
2018-05-16T15:23:16.730Z,22.33
2018-05-16T15:25:43.264Z,23.03
2018-05-16T15:28:09.433Z,22.60
2018-05-16T15:30:35.445Z,21.30
2018-05-16T15:33:01.501Z,19.70
2018-05-16T15:35:27.634Z,21.13
2018-05-16T15:37:53.820Z,22.70
2018-05-16T15:40:20.229Z,20.60
2018-05-16T15:42:46.334Z,20.90
2018-05-16T15:45:12.460Z,26.77
2018-05-16T15:47:38.913Z,27.50
2018-05-16T15:50:05.521Z,20.20
2018-05-16T15:52:31.573Z,22.23
2018-05-16T15:54:57.679Z,21.87
2018-05-16T15:57:24.449Z,22.60
2018-05-16T15:59:51.261Z,22.10
2018-05-16T16:02:17.343Z,24.90
2018-05-16T16:04:43.405Z,20.10
2018-05-16T16:07:09.517Z,24.07
2018-05-16T16:09:35.633Z,25.13
2018-05-16T16:12:01.645Z,31.43
2018-05-16T16:14:27.925Z,28.30
2018-05-16T16:16:54.450Z,19.13
2018-05-16T16:19:20.490Z,18.17
2018-05-16T16:21:46.942Z,18.63
2018-05-16T16:24:12.956Z,19.13
2018-05-16T16:26:39.033Z,24.77
2018-05-16T16:29:05.245Z,16.53
2018-05-16T16:31:31.273Z,21.73
2018-05-16T16:33:57.585Z,17.77
2018-05-16T16:36:23.617Z,15.43
2018-05-16T16:38:49.677Z,22.20
2018-05-16T16:41:15.701Z,19.33
2018-05-16T16:43:42.206Z,16.77
2018-05-16T16:46:08.233Z,18.00
2018-05-16T16:48:34.261Z,18.13
2018-05-16T16:51:00.333Z,21.83
2018-05-16T16:53:26.349Z,18.47
2018-05-16T16:55:53.259Z,20.03
2018-05-16T16:58:19.309Z,17.33
2018-05-16T17:00:45.333Z,17.27
2018-05-16T17:03:11.425Z,20.63
2018-05-16T17:05:38.169Z,18.63
2018-05-16T17:08:04.214Z,16.83
2018-05-16T17:10:30.273Z,21.43
2018-05-16T17:12:56.397Z,20.40
2018-05-16T17:15:22.445Z,23.47
2018-05-16T17:17:48.465Z,23.37
2018-05-16T17:20:14.564Z,23.80
2018-05-16T17:22:40.533Z,19.93
2018-05-16T17:25:07.001Z,21.53
2018-05-16T17:27:33.046Z,25.20
2018-05-16T17:29:59.213Z,20.67
2018-05-16T17:32:25.253Z,20.77
2018-05-16T17:34:51.356Z,20.87
2018-05-16T17:37:17.985Z,20.00
2018-05-16T17:39:44.155Z,22.97
2018-05-16T17:42:10.181Z,23.73
2018-05-16T17:44:36.198Z,24.40
2018-05-16T17:47:02.293Z,19.47
2018-05-16T17:49:28.338Z,18.83
2018-05-16T17:51:54.473Z,22.57
2018-05-16T17:54:20.498Z,19.03
2018-05-16T17:56:46.529Z,21.40
2018-05-16T17:59:12.866Z,16.93
2018-05-16T18:01:38.885Z,15.00
2018-05-16T18:04:04.976Z,21.00
2018-05-16T18:06:31.144Z,23.03
2018-05-16T18:08:57.110Z,22.13
2018-05-16T18:11:23.173Z,22.97
2018-05-16T18:14:02.125Z,20.40
2018-05-16T18:16:40.501Z,19.20
2018-05-16T18:19:06.527Z,22.37
2018-05-16T18:21:32.732Z,20.77
2018-05-16T18:23:58.749Z,24.03
2018-05-16T18:26:25.113Z,17.57
2018-05-16T18:28:51.173Z,20.87
2018-05-16T18:31:17.355Z,28.03
2018-05-16T18:33:43.391Z,22.13
2018-05-16T18:36:09.454Z,19.63
2018-05-16T18:38:35.470Z,18.87
2018-05-16T18:41:01.747Z,21.20
2018-05-16T18:43:27.793Z,21.07
2018-05-16T18:45:53.837Z,25.13
2018-05-16T18:48:19.858Z,18.30
2018-05-16T18:50:45.879Z,23.47
2018-05-16T18:53:11.937Z,24.40
2018-05-16T18:55:38.017Z,20.93
2018-05-16T18:58:04.053Z,23.07
2018-05-16T19:00:30.177Z,23.23
2018-05-16T19:02:56.205Z,22.90
2018-05-16T19:05:22.261Z,22.63
2018-05-16T19:07:48.388Z,18.70
2018-05-16T19:10:14.430Z,17.40
2018-05-16T19:12:40.445Z,22.40
2018-05-16T19:15:06.589Z,24.03
2018-05-16T19:17:32.705Z,19.57
2018-05-16T19:19:58.810Z,18.60
2018-05-16T19:22:24.805Z,15.97
2018-05-16T19:24:50.878Z,20.93
2018-05-16T19:27:17.054Z,23.90
2018-05-16T19:29:43.121Z,20.60
2018-05-16T19:32:09.585Z,21.80
2018-05-16T19:34:35.619Z,20.30
2018-05-16T19:37:01.632Z,20.03
2018-05-16T19:39:27.662Z,22.80
2018-05-16T19:41:53.727Z,22.57
2018-05-16T19:44:20.546Z,19.17
2018-05-16T19:46:46.609Z,22.73
2018-05-16T19:49:13.997Z,20.33
2018-05-16T19:51:40.032Z,18.50
2018-05-16T19:54:06.098Z,23.97
2018-05-16T19:56:32.332Z,21.03
2018-05-16T19:58:58.344Z,22.73
2018-05-16T20:01:25.177Z,24.70
2018-05-16T20:03:51.265Z,23.07
2018-05-16T20:06:17.312Z,22.53
2018-05-16T20:08:43.401Z,18.87
2018-05-16T20:11:09.417Z,20.27
2018-05-16T20:13:35.422Z,22.60
2018-05-16T20:16:01.576Z,20.63
2018-05-16T20:18:27.625Z,24.93
2018-05-16T20:20:53.681Z,22.63
2018-05-16T20:23:19.983Z,25.03
2018-05-16T20:25:46.012Z,27.63
2018-05-16T20:28:12.035Z,18.10
2018-05-16T20:30:38.674Z,21.20
2018-05-16T20:33:04.709Z,18.63
2018-05-16T20:35:30.798Z,22.03
2018-05-16T20:37:56.814Z,19.50
2018-05-16T20:40:22.825Z,18.83
2018-05-16T20:42:51.912Z,23.80
2018-05-16T20:45:17.977Z,21.00
2018-05-16T20:47:44.015Z,21.67
2018-05-16T20:50:10.090Z,25.67
2018-05-16T20:52:36.109Z,24.33
2018-05-16T20:55:02.145Z,26.67
2018-05-16T20:57:28.209Z,24.20
2018-05-16T20:59:54.338Z,27.47
2018-05-16T21:02:20.357Z,24.33
2018-05-16T21:04:46.429Z,22.37
2018-05-16T21:07:12.428Z,27.90
2018-05-16T21:09:38.477Z,24.83
2018-05-16T21:12:04.564Z,20.40
2018-05-16T21:14:30.580Z,17.30
2018-05-16T21:16:56.593Z,27.73
2018-05-16T21:19:22.621Z,24.27
2018-05-16T21:21:48.691Z,18.80
2018-05-16T21:24:14.756Z,24.33
2018-05-16T21:26:40.774Z,27.40
2018-05-16T21:29:07.751Z,19.53
2018-05-16T21:31:33.785Z,20.23
2018-05-16T21:34:00.067Z,21.53
2018-05-16T21:36:26.130Z,23.90
2018-05-16T21:38:52.653Z,22.27
2018-05-16T21:41:18.673Z,19.50
2018-05-16T21:43:44.710Z,23.03
2018-05-16T21:46:10.759Z,20.87
2018-05-16T21:48:36.853Z,15.20
2018-05-16T21:51:03.402Z,26.53
2018-05-16T21:53:29.429Z,23.73
2018-05-16T21:55:55.453Z,20.20
2018-05-16T21:58:21.497Z,20.20
2018-05-16T22:00:47.753Z,22.83
2018-05-16T22:03:13.761Z,24.60
2018-05-16T22:05:39.796Z,25.70
2018-05-16T22:08:06.006Z,24.30
2018-05-16T22:10:32.147Z,21.70
2018-05-16T22:12:58.237Z,31.70
2018-05-16T22:15:24.509Z,23.97
2018-05-16T22:17:50.532Z,21.50
2018-05-16T22:20:16.561Z,24.87
2018-05-16T22:22:43.374Z,21.50
2018-05-16T22:25:09.516Z,27.07
2018-05-16T22:27:35.557Z,20.90
2018-05-16T22:30:01.833Z,23.07
2018-05-16T22:32:33.933Z,24.00
2018-05-16T22:35:06.573Z,19.20
2018-05-16T22:37:38.613Z,18.70
2018-05-16T22:40:11.521Z,32.67
2018-05-16T22:42:37.506Z,20.10
2018-05-16T22:45:09.721Z,26.07
2018-05-16T22:47:35.748Z,21.60
2018-05-16T22:50:01.778Z,20.90
2018-05-16T22:52:28.201Z,21.47
2018-05-16T22:54:54.254Z,22.50
2018-05-16T22:57:20.337Z,18.53
2018-05-16T22:59:46.349Z,19.60
2018-05-16T23:02:12.377Z,20.33
2018-05-16T23:04:39.352Z,21.23
2018-05-16T23:07:05.839Z,23.23
2018-05-16T23:09:31.928Z,24.17
2018-05-16T23:11:58.449Z,19.63
2018-05-16T23:14:24.464Z,22.80
2018-05-16T23:16:50.893Z,19.00
2018-05-16T23:19:16.972Z,20.47
2018-05-16T23:21:43.041Z,20.67
2018-05-16T23:24:09.082Z,19.50
2018-05-16T23:26:35.113Z,23.57
2018-05-16T23:29:01.134Z,28.87
2018-05-16T23:31:27.175Z,24.97
2018-05-16T23:33:53.785Z,20.27
2018-05-16T23:36:19.809Z,22.63
2018-05-16T23:38:45.860Z,28.87
2018-05-16T23:41:11.902Z,17.17
2018-05-16T23:43:37.914Z,24.80
2018-05-16T23:46:04.001Z,21.87
2018-05-16T23:48:30.036Z,23.97
2018-05-16T23:50:56.054Z,26.80
2018-05-16T23:53:22.217Z,24.87
2018-05-16T23:55:48.239Z,19.27
2018-05-16T23:58:14.477Z,23.20
